sensor_id;sensor_type;location;lat;lon;timestamp;P1;durP1;ratioP1;P2;durP2;ratioP2
75864;SDS011;64510;46.704;38.274;2022-12-18T00:01:48;9.18;;;4.90;;
75864;SDS011;64510;46.704;38.274;2022-12-18T00:04:21;9.60;;;5.60;;
75864;SDS011;64510;46.704;38.274;2022-12-18T00:06:49;7.13;;;4.95;;
75864;SDS011;64510;46.704;38.274;2022-12-18T00:09:16;10.27;;;5.10;;
75864;SDS011;64510;46.704;38.274;2022-12-18T00:11:42;8.43;;;5.30;;
75864;SDS011;64510;46.704;38.274;2022-12-18T00:14:08;13.75;;;5.30;;
75864;SDS011;64510;46.704;38.274;2022-12-18T00:16:36;6.93;;;4.13;;
75864;SDS011;64510;46.704;38.274;2022-12-18T00:19:02;9.73;;;6.35;;
75864;SDS011;64510;46.704;38.274;2022-12-18T00:21:29;8.82;;;6.05;;
75864;SDS011;64510;46.704;38.274;2022-12-18T00:23:56;10.93;;;6.55;;
75864;SDS011;64510;46.704;38.274;2022-12-18T00:26:24;8.60;;;5.25;;
75864;SDS011;64510;46.704;38.274;2022-12-18T00:28:57;8.75;;;4.43;;
75864;SDS011;64510;46.704;38.274;2022-12-18T00:31:24;7.03;;;5.18;;
75864;SDS011;64510;46.704;38.274;2022-12-18T00:33:55;6.47;;;3.97;;
75864;SDS011;64510;46.704;38.274;2022-12-18T00:36:23;6.80;;;4.15;;
75864;SDS011;64510;46.704;38.274;2022-12-18T00:38:51;9.50;;;4.57;;
75864;SDS011;64510;46.704;38.274;2022-12-18T00:41:19;7.43;;;5.03;;
75864;SDS011;64510;46.704;38.274;2022-12-18T00:44:04;9.70;;;4.68;;
75864;SDS011;64510;46.704;38.274;2022-12-18T00:46:31;4.55;;;3.38;;
75864;SDS011;64510;46.704;38.274;2022-12-18T00:48:57;11.98;;;4.80;;
75864;SDS011;64510;46.704;38.274;2022-12-18T00:51:24;7.32;;;4.63;;
75864;SDS011;64510;46.704;38.274;2022-12-18T00:53:51;8.30;;;5.40;;
75864;SDS011;64510;46.704;38.274;2022-12-18T00:56:17;6.03;;;4.03;;
75864;SDS011;64510;46.704;38.274;2022-12-18T00:58:49;4.80;;;3.00;;
75864;SDS011;64510;46.704;38.274;2022-12-18T01:01:16;9.55;;;4.45;;
75864;SDS011;64510;46.704;38.274;2022-12-18T01:03:42;6.13;;;5.15;;
75864;SDS011;64510;46.704;38.274;2022-12-18T01:06:11;9.00;;;4.68;;
75864;SDS011;64510;46.704;38.274;2022-12-18T01:08:38;6.38;;;4.55;;
75864;SDS011;64510;46.704;38.274;2022-12-18T01:11:11;6.43;;;4.13;;
75864;SDS011;64510;46.704;38.274;2022-12-18T01:13:40;9.18;;;4.50;;
75864;SDS011;64510;46.704;38.274;2022-12-18T01:16:06;11.35;;;4.32;;
75864;SDS011;64510;46.704;38.274;2022-12-18T01:18:34;8.48;;;4.57;;
75864;SDS011;64510;46.704;38.274;2022-12-18T01:21:00;7.65;;;4.10;;
75864;SDS011;64510;46.704;38.274;2022-12-18T01:23:30;12.10;;;5.30;;
75864;SDS011;64510;46.704;38.274;2022-12-18T01:26:03;6.40;;;4.63;;
75864;SDS011;64510;46.704;38.274;2022-12-18T01:28:34;7.10;;;4.32;;
75864;SDS011;64510;46.704;38.274;2022-12-18T01:31:11;6.72;;;3.67;;
75864;SDS011;64510;46.704;38.274;2022-12-18T01:34:03;9.40;;;4.35;;
75864;SDS011;64510;46.704;38.274;2022-12-18T01:36:34;7.50;;;3.35;;
75864;SDS011;64510;46.704;38.274;2022-12-18T01:39:02;6.00;;;4.22;;
75864;SDS011;64510;46.704;38.274;2022-12-18T01:41:30;6.72;;;3.90;;
75864;SDS011;64510;46.704;38.274;2022-12-18T01:50:05;5.60;;;4.18;;
75864;SDS011;64510;46.704;38.274;2022-12-18T01:52:54;7.20;;;4.55;;
75864;SDS011;64510;46.704;38.274;2022-12-18T01:55:23;8.65;;;4.38;;
75864;SDS011;64510;46.704;38.274;2022-12-18T01:57:52;5.53;;;3.22;;
75864;SDS011;64510;46.704;38.274;2022-12-18T02:00:20;7.07;;;4.28;;
75864;SDS011;64510;46.704;38.274;2022-12-18T02:02:50;7.50;;;4.20;;
75864;SDS011;64510;46.704;38.274;2022-12-18T02:05:19;7.15;;;5.32;;
75864;SDS011;64510;46.704;38.274;2022-12-18T02:10:43;4.70;;;3.72;;
75864;SDS011;64510;46.704;38.274;2022-12-18T02:13:36;6.60;;;4.22;;
75864;SDS011;64510;46.704;38.274;2022-12-18T02:18:57;6.63;;;3.70;;
75864;SDS011;64510;46.704;38.274;2022-12-18T02:27:19;6.20;;;4.07;;
75864;SDS011;64510;46.704;38.274;2022-12-18T02:29:52;8.68;;;3.25;;
75864;SDS011;64510;46.704;38.274;2022-12-18T02:32:27;4.75;;;3.05;;
75864;SDS011;64510;46.704;38.274;2022-12-18T02:34:58;4.32;;;2.70;;
75864;SDS011;64510;46.704;38.274;2022-12-18T02:37:27;7.45;;;4.20;;
75864;SDS011;64510;46.704;38.274;2022-12-18T02:39:56;9.35;;;4.15;;
75864;SDS011;64510;46.704;38.274;2022-12-18T02:42:24;7.32;;;3.85;;
75864;SDS011;64510;46.704;38.274;2022-12-18T02:44:51;9.13;;;3.63;;
75864;SDS011;64510;46.704;38.274;2022-12-18T02:55:16;5.32;;;3.72;;
75864;SDS011;64510;46.704;38.274;2022-12-18T03:01:18;5.82;;;3.38;;
75864;SDS011;64510;46.704;38.274;2022-12-18T03:03:51;5.78;;;3.90;;
75864;SDS011;64510;46.704;38.274;2022-12-18T03:06:24;4.70;;;3.08;;
75864;SDS011;64510;46.704;38.274;2022-12-18T03:09:39;5.93;;;3.35;;
75864;SDS011;64510;46.704;38.274;2022-12-18T03:12:14;8.65;;;3.50;;
75864;SDS011;64510;46.704;38.274;2022-12-18T03:17:37;7.35;;;3.33;;
75864;SDS011;64510;46.704;38.274;2022-12-18T03:20:14;5.90;;;2.80;;
75864;SDS011;64510;46.704;38.274;2022-12-18T03:22:45;5.63;;;2.90;;
75864;SDS011;64510;46.704;38.274;2022-12-18T03:25:16;6.20;;;3.25;;
75864;SDS011;64510;46.704;38.274;2022-12-18T03:27:49;4.70;;;3.20;;
75864;SDS011;64510;46.704;38.274;2022-12-18T03:30:20;8.98;;;3.47;;
75864;SDS011;64510;46.704;38.274;2022-12-18T03:35:20;5.43;;;2.78;;
75864;SDS011;64510;46.704;38.274;2022-12-18T03:37:49;3.90;;;2.58;;
75864;SDS011;64510;46.704;38.274;2022-12-18T03:40:16;6.30;;;3.45;;
75864;SDS011;64510;46.704;38.274;2022-12-18T03:42:48;8.48;;;2.67;;
75864;SDS011;64510;46.704;38.274;2022-12-18T03:48:16;3.17;;;2.15;;
75864;SDS011;64510;46.704;38.274;2022-12-18T03:52:10;4.35;;;2.53;;
75864;SDS011;64510;46.704;38.274;2022-12-18T03:54:07;4.68;;;2.85;;
75864;SDS011;64510;46.704;38.274;2022-12-18T03:56:47;3.85;;;3.42;;
75864;SDS011;64510;46.704;38.274;2022-12-18T03:59:19;5.63;;;3.17;;
75864;SDS011;64510;46.704;38.274;2022-12-18T04:01:49;5.38;;;3.10;;
75864;SDS011;64510;46.704;38.274;2022-12-18T04:04:18;5.53;;;3.45;;
75864;SDS011;64510;46.704;38.274;2022-12-18T04:06:47;6.18;;;3.83;;
75864;SDS011;64510;46.704;38.274;2022-12-18T04:09:17;7.15;;;3.30;;
75864;SDS011;64510;46.704;38.274;2022-12-18T04:11:46;8.05;;;2.95;;
75864;SDS011;64510;46.704;38.274;2022-12-18T04:14:14;4.85;;;3.00;;
75864;SDS011;64510;46.704;38.274;2022-12-18T04:16:40;10.13;;;3.22;;
75864;SDS011;64510;46.704;38.274;2022-12-18T04:19:10;8.95;;;3.72;;
75864;SDS011;64510;46.704;38.274;2022-12-18T04:21:39;4.68;;;2.58;;
75864;SDS011;64510;46.704;38.274;2022-12-18T04:24:06;4.65;;;2.53;;
75864;SDS011;64510;46.704;38.274;2022-12-18T04:26:34;8.18;;;4.40;;
75864;SDS011;64510;46.704;38.274;2022-12-18T04:29:16;6.53;;;3.38;;
75864;SDS011;64510;46.704;38.274;2022-12-18T04:31:42;6.50;;;3.50;;
75864;SDS011;64510;46.704;38.274;2022-12-18T04:34:08;12.23;;;3.95;;
75864;SDS011;64510;46.704;38.274;2022-12-18T04:36:40;5.28;;;3.08;;
75864;SDS011;64510;46.704;38.274;2022-12-18T04:39:07;3.55;;;2.45;;
75864;SDS011;64510;46.704;38.274;2022-12-18T04:41:35;9.85;;;3.88;;
75864;SDS011;64510;46.704;38.274;2022-12-18T04:44:05;11.57;;;4.28;;
75864;SDS011;64510;46.704;38.274;2022-12-18T04:46:31;9.88;;;3.78;;
75864;SDS011;64510;46.704;38.274;2022-12-18T04:48:57;7.40;;;4.22;;
75864;SDS011;64510;46.704;38.274;2022-12-18T04:51:23;5.97;;;4.18;;
75864;SDS011;64510;46.704;38.274;2022-12-18T04:53:49;8.40;;;4.10;;
75864;SDS011;64510;46.704;38.274;2022-12-18T04:56:15;6.72;;;4.38;;
75864;SDS011;64510;46.704;38.274;2022-12-18T04:58:42;5.97;;;3.90;;
75864;SDS011;64510;46.704;38.274;2022-12-18T05:01:10;8.20;;;3.95;;
75864;SDS011;64510;46.704;38.274;2022-12-18T05:03:36;11.02;;;4.35;;
75864;SDS011;64510;46.704;38.274;2022-12-18T05:06:03;11.23;;;4.40;;
75864;SDS011;64510;46.704;38.274;2022-12-18T05:08:30;10.57;;;4.70;;
75864;SDS011;64510;46.704;38.274;2022-12-18T05:11:04;9.43;;;4.15;;
75864;SDS011;64510;46.704;38.274;2022-12-18T05:13:31;11.00;;;5.03;;
75864;SDS011;64510;46.704;38.274;2022-12-18T05:15:58;6.45;;;4.97;;
75864;SDS011;64510;46.704;38.274;2022-12-18T05:18:25;6.68;;;3.47;;
75864;SDS011;64510;46.704;38.274;2022-12-18T05:20:52;8.43;;;4.97;;
75864;SDS011;64510;46.704;38.274;2022-12-18T05:23:19;8.68;;;5.47;;
75864;SDS011;64510;46.704;38.274;2022-12-18T05:25:47;10.02;;;4.70;;
75864;SDS011;64510;46.704;38.274;2022-12-18T05:28:20;16.02;;;5.10;;
75864;SDS011;64510;46.704;38.274;2022-12-18T05:30:49;10.88;;;4.63;;
75864;SDS011;64510;46.704;38.274;2022-12-18T05:33:17;14.85;;;6.07;;
75864;SDS011;64510;46.704;38.274;2022-12-18T05:35:43;10.25;;;5.43;;
75864;SDS011;64510;46.704;38.274;2022-12-18T05:38:10;9.70;;;5.07;;
75864;SDS011;64510;46.704;38.274;2022-12-18T05:40:36;10.65;;;6.32;;
75864;SDS011;64510;46.704;38.274;2022-12-18T05:43:02;11.23;;;7.20;;
75864;SDS011;64510;46.704;38.274;2022-12-18T05:45:30;12.93;;;5.03;;
75864;SDS011;64510;46.704;38.274;2022-12-18T05:47:56;14.18;;;5.88;;
75864;SDS011;64510;46.704;38.274;2022-12-18T05:50:22;14.73;;;5.70;;
75864;SDS011;64510;46.704;38.274;2022-12-18T05:52:48;11.70;;;5.80;;
75864;SDS011;64510;46.704;38.274;2022-12-18T05:55:14;10.75;;;6.68;;
75864;SDS011;64510;46.704;38.274;2022-12-18T05:57:40;11.63;;;6.40;;
75864;SDS011;64510;46.704;38.274;2022-12-18T06:00:06;8.98;;;5.25;;
75864;SDS011;64510;46.704;38.274;2022-12-18T06:02:37;13.95;;;6.05;;
75864;SDS011;64510;46.704;38.274;2022-12-18T06:05:03;12.77;;;6.85;;
75864;SDS011;64510;46.704;38.274;2022-12-18T06:07:29;10.07;;;5.40;;
75864;SDS011;64510;46.704;38.274;2022-12-18T06:09:55;16.65;;;6.63;;
75864;SDS011;64510;46.704;38.274;2022-12-18T06:12:21;13.98;;;5.85;;
75864;SDS011;64510;46.704;38.274;2022-12-18T06:14:47;9.73;;;5.55;;
75864;SDS011;64510;46.704;38.274;2022-12-18T06:17:13;15.48;;;7.00;;
75864;SDS011;64510;46.704;38.274;2022-12-18T06:19:39;18.88;;;5.68;;
75864;SDS011;64510;46.704;38.274;2022-12-18T06:22:05;16.25;;;6.65;;
75864;SDS011;64510;46.704;38.274;2022-12-18T06:24:31;15.02;;;6.53;;
75864;SDS011;64510;46.704;38.274;2022-12-18T06:26:58;16.23;;;7.30;;
75864;SDS011;64510;46.704;38.274;2022-12-18T06:29:24;16.83;;;7.45;;
75864;SDS011;64510;46.704;38.274;2022-12-18T06:31:50;18.15;;;7.40;;
75864;SDS011;64510;46.704;38.274;2022-12-18T06:34:19;17.77;;;9.00;;
75864;SDS011;64510;46.704;38.274;2022-12-18T06:36:44;23.13;;;9.05;;
75864;SDS011;64510;46.704;38.274;2022-12-18T06:39:10;20.75;;;9.20;;
75864;SDS011;64510;46.704;38.274;2022-12-18T06:41:36;28.83;;;9.38;;
75864;SDS011;64510;46.704;38.274;2022-12-18T06:44:02;27.60;;;8.73;;
75864;SDS011;64510;46.704;38.274;2022-12-18T06:46:28;26.33;;;8.02;;
75864;SDS011;64510;46.704;38.274;2022-12-18T06:48:54;25.05;;;7.68;;
75864;SDS011;64510;46.704;38.274;2022-12-18T06:51:20;32.35;;;9.80;;
75864;SDS011;64510;46.704;38.274;2022-12-18T06:53:47;20.45;;;8.50;;
75864;SDS011;64510;46.704;38.274;2022-12-18T06:56:13;17.48;;;7.57;;
75864;SDS011;64510;46.704;38.274;2022-12-18T06:58:40;37.97;;;9.88;;
75864;SDS011;64510;46.704;38.274;2022-12-18T07:01:07;20.73;;;8.23;;
75864;SDS011;64510;46.704;38.274;2022-12-18T07:03:35;19.65;;;7.47;;
75864;SDS011;64510;46.704;38.274;2022-12-18T07:06:02;25.05;;;9.32;;
75864;SDS011;64510;46.704;38.274;2022-12-18T07:08:29;26.40;;;9.02;;
75864;SDS011;64510;46.704;38.274;2022-12-18T07:10:56;28.95;;;9.65;;
75864;SDS011;64510;46.704;38.274;2022-12-18T07:13:22;26.67;;;10.02;;
75864;SDS011;64510;46.704;38.274;2022-12-18T07:15:48;30.67;;;9.68;;
75864;SDS011;64510;46.704;38.274;2022-12-18T07:18:14;26.70;;;8.57;;
75864;SDS011;64510;46.704;38.274;2022-12-18T07:20:40;29.92;;;9.43;;
75864;SDS011;64510;46.704;38.274;2022-12-18T07:23:06;22.65;;;9.15;;
75864;SDS011;64510;46.704;38.274;2022-12-18T07:25:36;20.90;;;9.10;;
75864;SDS011;64510;46.704;38.274;2022-12-18T07:28:02;23.13;;;8.88;;
75864;SDS011;64510;46.704;38.274;2022-12-18T07:30:28;26.60;;;9.02;;
75864;SDS011;64510;46.704;38.274;2022-12-18T07:32:54;21.00;;;8.55;;
75864;SDS011;64510;46.704;38.274;2022-12-18T07:35:21;28.98;;;12.27;;
75864;SDS011;64510;46.704;38.274;2022-12-18T07:37:47;23.20;;;9.60;;
75864;SDS011;64510;46.704;38.274;2022-12-18T07:40:13;26.42;;;11.32;;
75864;SDS011;64510;46.704;38.274;2022-12-18T07:42:39;24.90;;;10.20;;
75864;SDS011;64510;46.704;38.274;2022-12-18T07:45:05;19.55;;;8.45;;
75864;SDS011;64510;46.704;38.274;2022-12-18T07:47:34;23.30;;;8.30;;
75864;SDS011;64510;46.704;38.274;2022-12-18T07:50:03;17.58;;;8.25;;
75864;SDS011;64510;46.704;38.274;2022-12-18T07:52:30;18.45;;;9.50;;
75864;SDS011;64510;46.704;38.274;2022-12-18T07:54:56;18.08;;;7.68;;
75864;SDS011;64510;46.704;38.274;2022-12-18T07:57:22;20.92;;;9.25;;
75864;SDS011;64510;46.704;38.274;2022-12-18T07:59:48;16.20;;;8.15;;
75864;SDS011;64510;46.704;38.274;2022-12-18T08:02:14;23.85;;;9.38;;
75864;SDS011;64510;46.704;38.274;2022-12-18T08:04:40;22.35;;;8.45;;
75864;SDS011;64510;46.704;38.274;2022-12-18T08:07:06;18.35;;;9.27;;
75864;SDS011;64510;46.704;38.274;2022-12-18T08:09:32;27.75;;;9.55;;
75864;SDS011;64510;46.704;38.274;2022-12-18T08:11:58;22.58;;;9.52;;
75864;SDS011;64510;46.704;38.274;2022-12-18T08:14:24;24.75;;;9.10;;
75864;SDS011;64510;46.704;38.274;2022-12-18T08:16:50;17.10;;;8.23;;
75864;SDS011;64510;46.704;38.274;2022-12-18T08:19:16;20.20;;;8.93;;
75864;SDS011;64510;46.704;38.274;2022-12-18T08:21:41;22.50;;;8.98;;
75864;SDS011;64510;46.704;38.274;2022-12-18T08:24:08;22.13;;;9.88;;
75864;SDS011;64510;46.704;38.274;2022-12-18T08:26:34;28.35;;;8.85;;
75864;SDS011;64510;46.704;38.274;2022-12-18T08:29:00;20.10;;;9.05;;
75864;SDS011;64510;46.704;38.274;2022-12-18T08:31:27;23.25;;;10.13;;
75864;SDS011;64510;46.704;38.274;2022-12-18T08:33:54;18.00;;;9.45;;
75864;SDS011;64510;46.704;38.274;2022-12-18T08:36:21;16.50;;;8.00;;
75864;SDS011;64510;46.704;38.274;2022-12-18T08:38:48;25.48;;;9.23;;
75864;SDS011;64510;46.704;38.274;2022-12-18T08:41:14;18.38;;;8.65;;
75864;SDS011;64510;46.704;38.274;2022-12-18T08:43:41;24.67;;;9.75;;
75864;SDS011;64510;46.704;38.274;2022-12-18T08:46:26;18.85;;;8.05;;
75864;SDS011;64510;46.704;38.274;2022-12-18T08:48:57;17.65;;;7.95;;
75864;SDS011;64510;46.704;38.274;2022-12-18T08:51:23;20.85;;;9.25;;
75864;SDS011;64510;46.704;38.274;2022-12-18T08:53:49;20.88;;;8.43;;
75864;SDS011;64510;46.704;38.274;2022-12-18T08:56:15;17.65;;;8.20;;
75864;SDS011;64510;46.704;38.274;2022-12-18T08:58:42;16.35;;;8.80;;
75864;SDS011;64510;46.704;38.274;2022-12-18T09:01:08;13.98;;;7.35;;
75864;SDS011;64510;46.704;38.274;2022-12-18T09:03:36;15.30;;;7.72;;
75864;SDS011;64510;46.704;38.274;2022-12-18T09:06:02;16.27;;;7.70;;
75864;SDS011;64510;46.704;38.274;2022-12-18T09:08:28;13.48;;;6.95;;
75864;SDS011;64510;46.704;38.274;2022-12-18T09:10:55;10.98;;;6.90;;
75864;SDS011;64510;46.704;38.274;2022-12-18T09:13:21;12.60;;;8.10;;
75864;SDS011;64510;46.704;38.274;2022-12-18T09:15:48;9.98;;;6.80;;
75864;SDS011;64510;46.704;38.274;2022-12-18T09:18:17;12.63;;;5.70;;
75864;SDS011;64510;46.704;38.274;2022-12-18T09:20:44;12.50;;;5.72;;
75864;SDS011;64510;46.704;38.274;2022-12-18T09:23:10;12.02;;;6.50;;
75864;SDS011;64510;46.704;38.274;2022-12-18T09:25:37;13.27;;;6.53;;
75864;SDS011;64510;46.704;38.274;2022-12-18T09:28:04;12.50;;;5.80;;
75864;SDS011;64510;46.704;38.274;2022-12-18T09:30:31;17.38;;;6.47;;
75864;SDS011;64510;46.704;38.274;2022-12-18T09:33:00;7.05;;;4.85;;
75864;SDS011;64510;46.704;38.274;2022-12-18T09:35:27;15.18;;;6.45;;
75864;SDS011;64510;46.704;38.274;2022-12-18T09:37:53;17.02;;;7.75;;
75864;SDS011;64510;46.704;38.274;2022-12-18T09:40:23;13.35;;;5.80;;
75864;SDS011;64510;46.704;38.274;2022-12-18T09:43:00;11.00;;;6.07;;
75864;SDS011;64510;46.704;38.274;2022-12-18T09:45:49;9.80;;;6.97;;
75864;SDS011;64510;46.704;38.274;2022-12-18T09:48:23;9.80;;;6.15;;
75864;SDS011;64510;46.704;38.274;2022-12-18T09:50:50;10.65;;;5.55;;
75864;SDS011;64510;46.704;38.274;2022-12-18T09:53:20;11.05;;;5.53;;
75864;SDS011;64510;46.704;38.274;2022-12-18T09:55:49;9.93;;;6.30;;
75864;SDS011;64510;46.704;38.274;2022-12-18T09:58:26;9.48;;;6.05;;
75864;SDS011;64510;46.704;38.274;2022-12-18T10:00:57;10.27;;;5.15;;
75864;SDS011;64510;46.704;38.274;2022-12-18T10:03:23;10.20;;;5.13;;
75864;SDS011;64510;46.704;38.274;2022-12-18T10:05:53;8.18;;;4.93;;
75864;SDS011;64510;46.704;38.274;2022-12-18T10:08:25;10.60;;;5.47;;
75864;SDS011;64510;46.704;38.274;2022-12-18T10:13:57;12.70;;;6.75;;
75864;SDS011;64510;46.704;38.274;2022-12-18T10:16:53;9.30;;;5.40;;
75864;SDS011;64510;46.704;38.274;2022-12-18T10:19:34;10.45;;;6.85;;
75864;SDS011;64510;46.704;38.274;2022-12-18T10:25:26;11.23;;;6.72;;
75864;SDS011;64510;46.704;38.274;2022-12-18T10:28:07;12.95;;;6.72;;
75864;SDS011;64510;46.704;38.274;2022-12-18T10:30:37;15.75;;;7.53;;
75864;SDS011;64510;46.704;38.274;2022-12-18T10:33:05;16.05;;;8.32;;
75864;SDS011;64510;46.704;38.274;2022-12-18T10:35:31;16.60;;;9.05;;
75864;SDS011;64510;46.704;38.274;2022-12-18T10:43:25;13.63;;;7.68;;
75864;SDS011;64510;46.704;38.274;2022-12-18T10:46:04;15.70;;;7.10;;
75864;SDS011;64510;46.704;38.274;2022-12-18T10:48:53;21.20;;;7.80;;
75864;SDS011;64510;46.704;38.274;2022-12-18T10:51:21;33.10;;;8.82;;
75864;SDS011;64510;46.704;38.274;2022-12-18T10:53:52;18.98;;;7.90;;
75864;SDS011;64510;46.704;38.274;2022-12-18T10:56:38;32.28;;;8.18;;
75864;SDS011;64510;46.704;38.274;2022-12-18T10:59:05;30.05;;;8.27;;
75864;SDS011;64510;46.704;38.274;2022-12-18T11:04:13;22.42;;;8.23;;
75864;SDS011;64510;46.704;38.274;2022-12-18T11:06:53;34.33;;;9.93;;
75864;SDS011;64510;46.704;38.274;2022-12-18T11:09:29;21.02;;;9.48;;
75864;SDS011;64510;46.704;38.274;2022-12-18T11:12:03;17.88;;;7.82;;
75864;SDS011;64510;46.704;38.274;2022-12-18T11:22:43;15.15;;;8.30;;
75864;SDS011;64510;46.704;38.274;2022-12-18T11:25:21;15.98;;;8.85;;
75864;SDS011;64510;46.704;38.274;2022-12-18T11:27:48;20.20;;;9.82;;
75864;SDS011;64510;46.704;38.274;2022-12-18T11:30:22;16.38;;;8.95;;
75864;SDS011;64510;46.704;38.274;2022-12-18T11:33:01;22.15;;;10.55;;
75864;SDS011;64510;46.704;38.274;2022-12-18T11:41:00;21.25;;;9.98;;
75864;SDS011;64510;46.704;38.274;2022-12-18T11:43:37;18.85;;;9.85;;
75864;SDS011;64510;46.704;38.274;2022-12-18T11:46:11;21.88;;;9.48;;
75864;SDS011;64510;46.704;38.274;2022-12-18T11:49:41;21.55;;;10.32;;
75864;SDS011;64510;46.704;38.274;2022-12-18T11:52:01;20.83;;;10.40;;
75864;SDS011;64510;46.704;38.274;2022-12-18T11:54:35;17.92;;;11.45;;
75864;SDS011;64510;46.704;38.274;2022-12-18T11:57:36;19.25;;;10.15;;
75864;SDS011;64510;46.704;38.274;2022-12-18T12:00:13;20.02;;;9.95;;
75864;SDS011;64510;46.704;38.274;2022-12-18T12:14:37;16.40;;;8.98;;
75864;SDS011;64510;46.704;38.274;2022-12-18T12:17:32;16.63;;;7.68;;
75864;SDS011;64510;46.704;38.274;2022-12-18T12:19:42;13.25;;;8.07;;
75864;SDS011;64510;46.704;38.274;2022-12-18T12:28:06;11.52;;;8.63;;
75864;SDS011;64510;46.704;38.274;2022-12-18T12:36:34;12.32;;;7.90;;
75864;SDS011;64510;46.704;38.274;2022-12-18T12:39:14;12.65;;;7.35;;
75864;SDS011;64510;46.704;38.274;2022-12-18T12:41:49;8.07;;;5.65;;
75864;SDS011;64510;46.704;38.274;2022-12-18T12:44:44;10.07;;;5.72;;
75864;SDS011;64510;46.704;38.274;2022-12-18T12:47:14;15.32;;;8.00;;
75864;SDS011;64510;46.704;38.274;2022-12-18T12:49:46;11.63;;;7.15;;
75864;SDS011;64510;46.704;38.274;2022-12-18T12:54:57;18.88;;;9.23;;
75864;SDS011;64510;46.704;38.274;2022-12-18T13:00:13;12.10;;;5.28;;
75864;SDS011;64510;46.704;38.274;2022-12-18T13:02:50;16.67;;;8.77;;
75864;SDS011;64510;46.704;38.274;2022-12-18T13:08:10;14.55;;;9.10;;
75864;SDS011;64510;46.704;38.274;2022-12-18T13:18:20;18.10;;;8.57;;
75864;SDS011;64510;46.704;38.274;2022-12-18T13:20:49;9.50;;;6.50;;
75864;SDS011;64510;46.704;38.274;2022-12-18T13:25:52;14.80;;;8.68;;
75864;SDS011;64510;46.704;38.274;2022-12-18T13:31:57;7.93;;;5.60;;
75864;SDS011;64510;46.704;38.274;2022-12-18T13:34:13;12.65;;;7.57;;
75864;SDS011;64510;46.704;38.274;2022-12-18T13:36:49;14.45;;;7.38;;
75864;SDS011;64510;46.704;38.274;2022-12-18T13:41:44;9.50;;;6.60;;
75864;SDS011;64510;46.704;38.274;2022-12-18T13:46:50;7.95;;;4.63;;
75864;SDS011;64510;46.704;38.274;2022-12-18T13:51:53;10.23;;;5.60;;
75864;SDS011;64510;46.704;38.274;2022-12-18T13:54:34;10.88;;;6.68;;
75864;SDS011;64510;46.704;38.274;2022-12-18T13:57:03;6.82;;;5.78;;
75864;SDS011;64510;46.704;38.274;2022-12-18T13:59:35;12.93;;;7.90;;
75864;SDS011;64510;46.704;38.274;2022-12-18T14:04:44;7.47;;;5.35;;
75864;SDS011;64510;46.704;38.274;2022-12-18T14:07:32;7.33;;;5.33;;
75864;SDS011;64510;46.704;38.274;2022-12-18T14:09:58;12.02;;;5.43;;
75864;SDS011;64510;46.704;38.274;2022-12-18T14:12:32;6.60;;;5.15;;
75864;SDS011;64510;46.704;38.274;2022-12-18T14:20:48;8.57;;;5.57;;
75864;SDS011;64510;46.704;38.274;2022-12-18T14:28:55;10.52;;;6.55;;
75864;SDS011;64510;46.704;38.274;2022-12-18T14:31:23;9.98;;;7.53;;
75864;SDS011;64510;46.704;38.274;2022-12-18T14:33:51;8.23;;;5.32;;
75864;SDS011;64510;46.704;38.274;2022-12-18T14:36:18;12.73;;;6.85;;
75864;SDS011;64510;46.704;38.274;2022-12-18T14:41:21;14.00;;;8.93;;
75864;SDS011;64510;46.704;38.274;2022-12-18T14:43:49;16.60;;;8.18;;
75864;SDS011;64510;46.704;38.274;2022-12-18T14:48:59;8.80;;;5.63;;
75864;SDS011;64510;46.704;38.274;2022-12-18T14:51:27;11.65;;;7.60;;
75864;SDS011;64510;46.704;38.274;2022-12-18T14:53:57;14.43;;;8.07;;
75864;SDS011;64510;46.704;38.274;2022-12-18T14:56:26;13.00;;;7.25;;
75864;SDS011;64510;46.704;38.274;2022-12-18T14:58:58;13.27;;;7.75;;
75864;SDS011;64510;46.704;38.274;2022-12-18T15:01:30;12.35;;;7.47;;
75864;SDS011;64510;46.704;38.274;2022-12-18T15:07:19;13.77;;;6.60;;
75864;SDS011;64510;46.704;38.274;2022-12-18T15:10:32;8.60;;;5.13;;
75864;SDS011;64510;46.704;38.274;2022-12-18T15:21:33;12.25;;;7.80;;
75864;SDS011;64510;46.704;38.274;2022-12-18T15:23:36;15.77;;;8.98;;
75864;SDS011;64510;46.704;38.274;2022-12-18T15:26:12;13.27;;;8.30;;
75864;SDS011;64510;46.704;38.274;2022-12-18T15:33:42;10.23;;;5.38;;
75864;SDS011;64510;46.704;38.274;2022-12-18T15:36:25;17.73;;;8.82;;
75864;SDS011;64510;46.704;38.274;2022-12-18T15:38:52;14.55;;;8.98;;
75864;SDS011;64510;46.704;38.274;2022-12-18T15:41:20;16.00;;;7.95;;
75864;SDS011;64510;46.704;38.274;2022-12-18T15:43:48;18.27;;;9.13;;
75864;SDS011;64510;46.704;38.274;2022-12-18T15:46:16;19.02;;;9.45;;
75864;SDS011;64510;46.704;38.274;2022-12-18T15:48:45;15.55;;;8.52;;
75864;SDS011;64510;46.704;38.274;2022-12-18T15:51:21;13.88;;;8.60;;
75864;SDS011;64510;46.704;38.274;2022-12-18T15:53:50;17.17;;;9.00;;
75864;SDS011;64510;46.704;38.274;2022-12-18T15:59:08;17.25;;;10.73;;
75864;SDS011;64510;46.704;38.274;2022-12-18T16:01:37;19.83;;;10.15;;
75864;SDS011;64510;46.704;38.274;2022-12-18T16:04:03;22.35;;;9.93;;
75864;SDS011;64510;46.704;38.274;2022-12-18T16:06:29;15.75;;;8.35;;
75864;SDS011;64510;46.704;38.274;2022-12-18T16:08:55;15.57;;;8.52;;
75864;SDS011;64510;46.704;38.274;2022-12-18T16:11:22;15.38;;;9.45;;
75864;SDS011;64510;46.704;38.274;2022-12-18T16:14:15;16.38;;;9.00;;
75864;SDS011;64510;46.704;38.274;2022-12-18T16:16:46;13.27;;;7.95;;
75864;SDS011;64510;46.704;38.274;2022-12-18T16:19:17;12.55;;;7.55;;
75864;SDS011;64510;46.704;38.274;2022-12-18T16:21:44;18.17;;;8.43;;
75864;SDS011;64510;46.704;38.274;2022-12-18T16:24:18;15.65;;;8.25;;
75864;SDS011;64510;46.704;38.274;2022-12-18T16:26:47;20.80;;;10.15;;
75864;SDS011;64510;46.704;38.274;2022-12-18T16:29:14;18.33;;;10.30;;
75864;SDS011;64510;46.704;38.274;2022-12-18T16:31:40;15.90;;;9.60;;
75864;SDS011;64510;46.704;38.274;2022-12-18T16:34:18;12.95;;;7.10;;
75864;SDS011;64510;46.704;38.274;2022-12-18T16:36:57;10.02;;;6.20;;
75864;SDS011;64510;46.704;38.274;2022-12-18T16:39:25;10.60;;;6.75;;
75864;SDS011;64510;46.704;38.274;2022-12-18T16:41:53;13.90;;;7.18;;
75864;SDS011;64510;46.704;38.274;2022-12-18T16:44:19;14.88;;;7.45;;
75864;SDS011;64510;46.704;38.274;2022-12-18T16:46:45;9.52;;;6.82;;
75864;SDS011;64510;46.704;38.274;2022-12-18T16:49:12;10.95;;;5.60;;
75864;SDS011;64510;46.704;38.274;2022-12-18T16:51:40;6.70;;;4.05;;
75864;SDS011;64510;46.704;38.274;2022-12-18T16:54:06;7.15;;;5.00;;
75864;SDS011;64510;46.704;38.274;2022-12-18T16:56:32;6.00;;;4.72;;
75864;SDS011;64510;46.704;38.274;2022-12-18T16:58:59;5.93;;;5.00;;
75864;SDS011;64510;46.704;38.274;2022-12-18T17:01:26;5.68;;;4.63;;
75864;SDS011;64510;46.704;38.274;2022-12-18T17:03:57;6.18;;;3.55;;
75864;SDS011;64510;46.704;38.274;2022-12-18T17:06:25;5.18;;;3.90;;
75864;SDS011;64510;46.704;38.274;2022-12-18T17:08:56;6.43;;;4.30;;
75864;SDS011;64510;46.704;38.274;2022-12-18T17:11:31;6.65;;;4.72;;
75864;SDS011;64510;46.704;38.274;2022-12-18T17:13:58;7.43;;;4.95;;
75864;SDS011;64510;46.704;38.274;2022-12-18T17:16:25;5.07;;;4.35;;
75864;SDS011;64510;46.704;38.274;2022-12-18T17:18:51;8.40;;;5.50;;
75864;SDS011;64510;46.704;38.274;2022-12-18T17:21:18;5.63;;;4.82;;